Time;durP1;ratioP1;P1;durP2;ratioP2;P2;SDS_P1;SDS_P2;PMS_P1;PMS_P2;Temp;Humidity;BMP_temperature;BMP_pressure;BME280_temperature;BME280_humidity;BME280_pressure;Samples;Min_cycle;Max_cycle;Signal;HPM_P1;HPM_P2
2021/12/16 00:09:13;;;;;;;;;;;12.40;99.90;;;;;;4938852;29;19930;-81
2021/12/16 00:29:32;;;;;;;;;;;12.50;99.90;;;;;;4952412;29;19930;-85
2021/12/16 00:31:59;;;;;;;;;;;12.40;99.90;;;;;;4949803;29;19931;-82
2021/12/16 00:34:35;;;;;;;;;;;13.70;99.90;;;;;;4951076;29;19933;-82
2021/12/16 00:37:05;;;;;;;;;;;12.40;99.90;;;;;;4935162;29;19935;-83
2021/12/16 00:39:38;;;;;;;;;;;12.90;99.90;;;;;;4949469;29;19933;-84
2021/12/16 00:42:26;;;;;;;;;;;12.40;99.90;;;;;;4950996;29;19933;-84
2021/12/16 00:48:10;;;;;;;;;;;12.40;99.90;;;;;;4893276;29;19937;-83
2021/12/16 00:56:15;;;;;;;;;;;12.30;99.90;;;;;;4940816;29;19927;-82
2021/12/16 00:58:53;;;;;;;;;;;12.30;99.90;;;;;;4948322;29;19927;-81
2021/12/16 01:07:16;;;;;;;;;;;12.60;99.90;;;;;;4933755;29;19942;-81
2021/12/16 01:35:47;;;;;;;;;;;12.30;99.90;;;;;;4953323;29;19931;-81
2021/12/16 01:47:35;;;;;;;;;;;12.30;99.90;;;;;;4937297;29;19927;-82
2021/12/16 01:50:11;;;;;;;;;;;11.90;99.90;;;;;;4953038;29;19927;-83
2021/12/16 01:55:34;;;;;;;;;;;12.30;99.90;;;;;;4970798;29;20416;-82
2021/12/16 01:58:23;;;;;;;;;;;12.50;99.90;;;;;;4971931;29;20388;-83
2021/12/16 02:01:30;;;;;;;;;;;11.20;99.90;;;;;;4952220;29;20525;-82
2021/12/16 02:04:02;;;;;;;;;;;12.20;99.90;;;;;;4933637;29;19937;-82
2021/12/16 02:09:17;;;;;;;;;;;13.60;99.90;;;;;;4950457;29;19927;-80
2021/12/16 02:11:59;;;;;;;;;;;12.30;99.90;;;;;;4950779;29;19934;-80
2021/12/16 02:31:54;;;;;;;;;;;12.20;99.90;;;;;;4953291;29;19926;-83
2021/12/16 02:34:41;;;;;;;;;;;12.20;99.90;;;;;;4957095;29;19937;-81
2021/12/16 02:37:19;;;;;;;;;;;12.40;99.90;;;;;;4975012;29;19940;-82
2021/12/16 02:39:52;;;;;;;;;;;12.30;99.90;;;;;;4958314;29;19932;-81
2021/12/16 02:42:35;;;;;;;;;;;12.10;99.90;;;;;;4975634;29;19930;-82
2021/12/16 02:50:51;;;;;;;;;;;12.40;99.90;;;;;;4934673;29;19938;-83
2021/12/16 02:53:20;;;;;;;;;;;12.20;99.90;;;;;;4935918;29;19931;-82
2021/12/16 02:55:50;;;;;;;;;;;12.20;99.90;;;;;;4942390;29;19932;-82
2021/12/16 02:58:27;;;;;;;;;;;12.20;99.90;;;;;;4941111;29;19923;-84
2021/12/16 03:01:05;;;;;;;;;;;12.30;99.90;;;;;;4936267;29;19938;-82
2021/12/16 03:03:38;;;;;;;;;;;12.60;99.90;;;;;;4952767;29;19943;-81
2021/12/16 03:06:11;;;;;;;;;;;12.20;99.90;;;;;;4936653;29;19927;-82
2021/12/16 03:08:42;;;;;;;;;;;12.30;99.90;;;;;;4952824;29;19927;-84
2021/12/16 03:11:34;;;;;;;;;;;12.30;99.90;;;;;;4937576;29;19933;-82
2021/12/16 03:22:00;;;;;;;;;;;12.30;99.90;;;;;;4931168;29;19927;-81
2021/12/16 03:33:13;;;;;;;;;;;12.10;99.90;;;;;;4933462;29;20320;-82
2021/12/16 03:38:20;;;;;;;;;;;12.20;99.90;;;;;;4951762;29;19930;-81
2021/12/16 03:40:51;;;;;;;;;;;12.10;99.90;;;;;;4950135;29;19937;-82
2021/12/16 03:43:20;;;;;;;;;;;11.10;99.90;;;;;;4964382;29;20308;-80
2021/12/16 03:48:55;;;;;;;;;;;11.60;99.90;;;;;;4971046;29;19927;-82
2021/12/16 03:51:29;;;;;;;;;;;12.00;99.90;;;;;;4966553;29;19933;-82
2021/12/16 03:54:02;;;;;;;;;;;12.20;99.90;;;;;;4951637;29;19927;-80
2021/12/16 03:56:34;;;;;;;;;;;12.10;99.90;;;;;;4951994;29;19941;-82
2021/12/16 03:59:15;;;;;;;;;;;12.00;99.90;;;;;;4935564;29;19933;-81
2021/12/16 04:01:55;;;;;;;;;;;12.00;99.90;;;;;;4952501;29;19927;-83
2021/12/16 04:04:32;;;;;;;;;;;12.10;99.90;;;;;;4951495;29;19927;-80
2021/12/16 04:07:09;;;;;;;;;;;12.10;99.90;;;;;;4950926;29;19933;-81
2021/12/16 04:10:01;;;;;;;;;;;12.10;99.90;;;;;;4952900;29;19937;-80
2021/12/16 04:12:29;;;;;;;;;;;12.00;99.90;;;;;;4934062;29;19931;-81
2021/12/16 04:15:01;;;;;;;;;;;12.00;99.90;;;;;;4948907;29;19938;-81
2021/12/16 04:17:37;;;;;;;;;;;11.90;99.90;;;;;;4948326;29;19938;-83
2021/12/16 04:20:08;;;;;;;;;;;12.00;99.90;;;;;;4950124;29;19931;-81
2021/12/16 04:22:43;;;;;;;;;;;12.10;99.90;;;;;;4933287;29;20291;-81
2021/12/16 04:25:18;;;;;;;;;;;12.00;99.90;;;;;;4948666;29;19926;-82
2021/12/16 04:27:47;;;;;;;;;;;12.20;99.90;;;;;;4967164;29;19937;-82
2021/12/16 04:30:18;;;;;;;;;;;12.00;99.90;;;;;;4949798;29;19933;-82
2021/12/16 04:32:47;;;;;;;;;;;12.00;99.90;;;;;;4932388;29;19930;-81
2021/12/16 04:35:17;;;;;;;;;;;12.10;99.90;;;;;;4948129;29;19973;-82
2021/12/16 04:37:51;;;;;;;;;;;12.00;99.90;;;;;;4949105;29;19935;-82
2021/12/16 04:40:22;;;;;;;;;;;12.00;99.90;;;;;;4916444;29;19929;-86
2021/12/16 04:43:00;;;;;;;;;;;11.90;99.90;;;;;;4917969;29;19959;-81
2021/12/16 04:45:37;;;;;;;;;;;12.00;99.90;;;;;;4939211;29;19927;-83
2021/12/16 04:48:08;;;;;;;;;;;12.00;99.90;;;;;;4949815;29;20021;-82
2021/12/16 04:50:44;;;;;;;;;;;12.00;99.90;;;;;;4949096;29;19930;-83
2021/12/16 04:53:17;;;;;;;;;;;12.10;99.90;;;;;;4951126;29;19937;-82
2021/12/16 04:55:54;;;;;;;;;;;12.00;99.90;;;;;;4938134;29;19931;-83
2021/12/16 04:58:28;;;;;;;;;;;12.00;99.90;;;;;;4951511;29;19939;-81
2021/12/16 05:01:00;;;;;;;;;;;10.90;99.90;;;;;;4956693;29;19937;-84
2021/12/16 05:03:36;;;;;;;;;;;12.00;99.90;;;;;;4940810;29;19927;-82
2021/12/16 05:06:06;;;;;;;;;;;12.20;99.90;;;;;;4937880;29;19927;-82
2021/12/16 05:08:35;;;;;;;;;;;12.00;99.90;;;;;;4955163;29;19933;-82
2021/12/16 05:11:14;;;;;;;;;;;12.10;99.90;;;;;;4937338;29;19927;-81
2021/12/16 05:13:47;;;;;;;;;;;11.90;99.90;;;;;;4922551;29;19927;-81
2021/12/16 05:16:24;;;;;;;;;;;11.60;99.90;;;;;;4954305;29;19931;-81
2021/12/16 05:18:54;;;;;;;;;;;12.00;99.90;;;;;;4948727;29;19927;-83
2021/12/16 05:24:30;;;;;;;;;;;12.00;99.90;;;;;;4934635;29;19927;-82
2021/12/16 05:27:07;;;;;;;;;;;11.40;99.90;;;;;;4938603;29;19953;-81
2021/12/16 05:29:38;;;;;;;;;;;12.30;99.90;;;;;;4922183;29;20403;-81
2021/12/16 05:32:13;;;;;;;;;;;13.60;99.90;;;;;;4917208;29;19935;-82
2021/12/16 05:34:44;;;;;;;;;;;10.40;99.90;;;;;;4913902;29;19941;-82
2021/12/16 05:37:14;;;;;;;;;;;12.30;99.90;;;;;;4942646;29;19927;-81
2021/12/16 05:39:45;;;;;;;;;;;11.90;99.90;;;;;;4974478;29;19932;-83
2021/12/16 05:42:32;;;;;;;;;;;11.80;99.90;;;;;;4973618;29;19926;-81
2021/12/16 05:45:08;;;;;;;;;;;11.80;99.90;;;;;;4973268;29;19927;-84
2021/12/16 05:47:39;;;;;;;;;;;11.70;99.90;;;;;;4964822;29;19933;-83
2021/12/16 05:50:12;;;;;;;;;;;11.90;99.90;;;;;;4937803;29;19937;-83
2021/12/16 05:52:44;;;;;;;;;;;11.80;99.90;;;;;;4954755;29;19930;-83
2021/12/16 05:55:18;;;;;;;;;;;11.80;99.90;;;;;;4954623;29;19933;-82
2021/12/16 05:58:09;;;;;;;;;;;11.90;99.90;;;;;;4946463;29;19941;-82
2021/12/16 06:00:41;;;;;;;;;;;12.00;99.90;;;;;;4951268;29;19937;-85
2021/12/16 06:03:28;;;;;;;;;;;12.30;99.90;;;;;;4935177;29;20388;-80
2021/12/16 06:05:58;;;;;;;;;;;11.80;99.90;;;;;;4936057;29;19941;-82
2021/12/16 06:08:27;;;;;;;;;;;11.90;99.90;;;;;;4952019;29;19933;-82
2021/12/16 06:13:43;;;;;;;;;;;11.80;99.90;;;;;;4954109;29;19938;-83
2021/12/16 06:27:30;;;;;;;;;;;11.80;99.90;;;;;;4953583;29;19927;-80
2021/12/16 06:29:59;;;;;;;;;;;11.80;99.90;;;;;;4958479;29;19930;-81
2021/12/16 06:32:28;;;;;;;;;;;12.70;99.90;;;;;;4950985;29;19927;-80
2021/12/16 06:34:56;;;;;;;;;;;11.90;99.90;;;;;;4934523;29;19938;-83
2021/12/16 06:37:25;;;;;;;;;;;13.30;99.90;;;;;;4935317;29;19930;-84
2021/12/16 06:39:53;;;;;;;;;;;11.90;99.90;;;;;;4919050;29;19927;-81
2021/12/16 06:42:35;;;;;;;;;;;11.80;99.90;;;;;;4936466;29;19931;-83
2021/12/16 06:45:10;;;;;;;;;;;11.80;99.90;;;;;;4917265;29;19934;-82
2021/12/16 06:47:48;;;;;;;;;;;11.80;99.90;;;;;;4932438;29;19936;-81
2021/12/16 06:53:10;;;;;;;;;;;11.90;99.90;;;;;;4971493;29;19926;-82
2021/12/16 06:56:02;;;;;;;;;;;11.80;99.90;;;;;;4944209;29;19934;-82
2021/12/16 06:58:41;;;;;;;;;;;11.80;99.90;;;;;;4948618;29;19930;-85
2021/12/16 07:02:04;;;;;;;;;;;13.10;99.90;;;;;;4950875;29;19923;-82
2021/12/16 07:04:11;;;;;;;;;;;11.70;99.90;;;;;;4923556;29;19926;-83
2021/12/16 07:06:45;;;;;;;;;;;12.00;99.90;;;;;;4934409;29;19927;-85
2021/12/16 07:09:17;;;;;;;;;;;11.80;99.90;;;;;;4949202;29;19927;-84
2021/12/16 07:12:05;;;;;;;;;;;11.80;99.90;;;;;;4932775;29;19938;-82
2021/12/16 07:14:41;;;;;;;;;;;13.00;99.90;;;;;;4917654;29;19937;-82
2021/12/16 07:17:12;;;;;;;;;;;11.80;99.90;;;;;;4934816;29;19926;-83
2021/12/16 07:19:50;;;;;;;;;;;11.90;99.90;;;;;;4951279;29;19927;-83
2021/12/16 07:22:29;;;;;;;;;;;14.10;99.90;;;;;;4953266;29;19937;-81
2021/12/16 07:25:06;;;;;;;;;;;11.90;99.90;;;;;;4936345;29;19927;-83
2021/12/16 07:27:37;;;;;;;;;;;11.80;99.90;;;;;;4919355;29;19927;-84
2021/12/16 07:30:13;;;;;;;;;;;10.60;99.90;;;;;;4936791;29;19934;-86
2021/12/16 07:33:01;;;;;;;;;;;11.80;99.90;;;;;;4955297;29;19926;-82
2021/12/16 07:35:33;;;;;;;;;;;11.80;99.90;;;;;;4953072;29;19931;-82
2021/12/16 07:38:24;;;;;;;;;;;11.80;99.90;;;;;;4937800;29;19923;-83
2021/12/16 07:41:02;;;;;;;;;;;11.90;99.90;;;;;;4947575;29;19933;-86
2021/12/16 07:46:53;;;;;;;;;;;11.70;99.90;;;;;;4952882;29;19927;-83
2021/12/16 07:50:02;;;;;;;;;;;12.40;99.90;;;;;;4950351;29;19937;-82
2021/12/16 07:53:07;;;;;;;;;;;11.80;99.90;;;;;;4928227;29;19931;-83
2021/12/16 07:55:47;;;;;;;;;;;11.20;99.90;;;;;;4946323;29;19933;-83
2021/12/16 07:58:27;;;;;;;;;;;11.90;99.90;;;;;;4934760;29;19927;-83
2021/12/16 08:01:05;;;;;;;;;;;11.80;99.90;;;;;;4915630;29;19927;-82
2021/12/16 08:04:01;;;;;;;;;;;11.70;99.90;;;;;;4915091;29;19927;-82
2021/12/16 08:06:48;;;;;;;;;;;11.80;99.90;;;;;;4912908;29;19927;-91
2021/12/16 08:09:34;;;;;;;;;;;12.10;99.90;;;;;;4917475;29;19938;-83
2021/12/16 08:12:14;;;;;;;;;;;12.30;99.90;;;;;;4952117;29;19931;-85
2021/12/16 08:15:31;;;;;;;;;;;11.90;99.90;;;;;;4953384;29;19921;-84
2021/12/16 08:19:18;;;;;;;;;;;;;;;;;;;;;
2021/12/16 08:22:13;;;;;;;;;;;12.10;99.90;;;;;;4883159;29;19932;-81
2021/12/16 08:24:44;;;;;;;;;;;11.80;99.90;;;;;;4869608;29;19943;-84
2021/12/16 08:27:13;;;;;;;;;;;11.70;99.90;;;;;;4867780;29;19941;-82
2021/12/16 08:29:42;;;;;;;;;;;12.00;99.90;;;;;;4873430;29;19929;-82
2021/12/16 08:32:10;;;;;;;;;;;11.80;99.90;;;;;;4894600;29;19934;-83
2021/12/16 08:34:39;;;;;;;;;;;10.40;99.90;;;;;;4951714;29;19927;-82
2021/12/16 08:37:09;;;;;;;;;;;13.00;99.90;;;;;;4951111;29;19926;-83
2021/12/16 08:39:42;;;;;;;;;;;11.70;99.90;;;;;;4951465;28;19926;-83
2021/12/16 08:42:11;;;;;;;;;;;11.70;99.90;;;;;;4948176;28;20176;-88
2021/12/16 08:44:43;;;;;;;;;;;11.70;99.90;;;;;;4934399;29;19927;-83
2021/12/16 08:47:18;;;;;;;;;;;11.80;99.90;;;;;;4952281;29;19934;-82
2021/12/16 08:49:49;;;;;;;;;;;11.80;99.90;;;;;;4951899;29;20186;-84
2021/12/16 08:52:20;;;;;;;;;;;11.70;99.90;;;;;;4948804;29;19937;-85
2021/12/16 08:54:52;;;;;;;;;;;11.80;99.90;;;;;;4950939;29;20239;-82
2021/12/16 08:57:27;;;;;;;;;;;11.70;99.90;;;;;;4951391;29;19934;-84
2021/12/16 08:59:55;;;;;;;;;;;11.70;99.90;;;;;;4951903;29;19933;-83
2021/12/16 09:02:23;;;;;;;;;;;10.10;99.90;;;;;;4931532;29;19930;-81
2021/12/16 09:04:52;;;;;;;;;;;12.00;99.90;;;;;;4914718;29;20316;-84
2021/12/16 09:07:20;;;;;;;;;;;12.00;99.90;;;;;;4932320;29;19927;-84
2021/12/16 09:09:49;;;;;;;;;;;11.00;99.90;;;;;;4948600;29;19927;-85
2021/12/16 09:15:04;;;;;;;;;;;11.80;99.90;;;;;;4947325;29;19927;-81
2021/12/16 09:17:33;;;;;;;;;;;11.80;99.90;;;;;;4935377;29;19923;-82
2021/12/16 09:20:10;;;;;;;;;;;11.80;99.90;;;;;;4916402;29;19934;-83
2021/12/16 09:22:42;;;;;;;;;;;13.50;99.90;;;;;;4922157;29;19950;-83
2021/12/16 09:25:24;;;;;;;;;;;11.80;99.90;;;;;;4932850;29;19927;-82
2021/12/16 09:28:00;;;;;;;;;;;11.80;99.90;;;;;;4930941;29;19926;-83
2021/12/16 09:30:30;;;;;;;;;;;11.50;99.90;;;;;;4948274;29;19927;-82
2021/12/16 09:33:03;;;;;;;;;;;11.90;99.90;;;;;;4947660;29;19927;-81
2021/12/16 09:35:33;;;;;;;;;;;11.70;99.90;;;;;;4930417;29;19931;-81
2021/12/16 09:38:03;;;;;;;;;;;11.80;99.90;;;;;;4947501;29;19938;-81
2021/12/16 09:40:39;;;;;;;;;;;11.80;99.90;;;;;;4936801;29;19921;-81
2021/12/16 09:43:12;;;;;;;;;;;11.80;99.90;;;;;;4922959;29;19933;-84
2021/12/16 09:45:52;;;;;;;;;;;11.70;99.90;;;;;;4953302;29;19927;-83
2021/12/16 09:48:48;;;;;;;;;;;11.70;99.90;;;;;;4940043;29;19914;-81
2021/12/16 09:51:25;;;;;;;;;;;11.80;99.90;;;;;;4934289;29;19927;-82
2021/12/16 09:53:56;;;;;;;;;;;11.80;99.90;;;;;;4932201;29;19930;-81
2021/12/16 09:56:34;;;;;;;;;;;11.80;99.90;;;;;;4937777;29;19941;-84
2021/12/16 09:59:13;;;;;;;;;;;11.90;99.90;;;;;;4938045;29;19931;-84
2021/12/16 10:01:43;;;;;;;;;;;11.90;99.90;;;;;;4921964;29;19927;-81
2021/12/16 10:04:15;;;;;;;;;;;11.90;99.90;;;;;;4939236;29;19927;-82
2021/12/16 10:06:43;;;;;;;;;;;12.10;99.90;;;;;;4952866;29;19941;-81
2021/12/16 10:09:13;;;;;;;;;;;12.00;99.90;;;;;;4935157;29;19931;-83
2021/12/16 10:11:45;;;;;;;;;;;12.00;99.90;;;;;;4936075;29;19957;-82
2021/12/16 10:19:52;;;;;;;;;;;12.00;99.90;;;;;;4953126;29;19934;-82
2021/12/16 10:22:38;;;;;;;;;;;11.90;99.90;;;;;;4952678;29;19937;-82
2021/12/16 10:25:21;;;;;;;;;;;12.20;99.90;;;;;;4950953;29;19926;-83
2021/12/16 10:28:11;;;;;;;;;;;12.20;99.90;;;;;;4936628;29;19942;-82
2021/12/16 10:30:39;;;;;;;;;;;12.10;99.90;;;;;;4949484;29;20275;-82
2021/12/16 10:33:20;;;;;;;;;;;12.30;99.90;;;;;;4927874;29;19937;-80
2021/12/16 10:35:56;;;;;;;;;;;12.20;99.90;;;;;;4955378;29;19941;-80
2021/12/16 10:38:25;;;;;;;;;;;12.40;99.90;;;;;;4935620;29;19927;-81
2021/12/16 10:40:54;;;;;;;;;;;12.20;99.90;;;;;;4918667;29;19937;-82
2021/12/16 10:43:27;;;;;;;;;;;12.40;99.90;;;;;;4933739;29;19999;-82
2021/12/16 10:45:58;;;;;;;;;;;12.20;99.90;;;;;;4957850;29;19942;-82
2021/12/16 10:48:46;;;;;;;;;;;12.20;99.90;;;;;;4948832;29;19931;-82
2021/12/16 10:51:20;;;;;;;;;;;12.20;99.90;;;;;;4931284;29;19933;-82
2021/12/16 10:53:59;;;;;;;;;;;12.30;99.90;;;;;;4916392;29;19935;-82
2021/12/16 10:56:34;;;;;;;;;;;12.30;99.90;;;;;;4948514;29;19993;-82
2021/12/16 10:59:04;;;;;;;;;;;12.30;99.90;;;;;;4932285;29;19934;-82
2021/12/16 11:01:34;;;;;;;;;;;12.40;99.90;;;;;;4950273;29;19927;-82
2021/12/16 11:04:03;;;;;;;;;;;12.30;99.90;;;;;;4933149;29;19927;-81
2021/12/16 11:06:35;;;;;;;;;;;11.90;99.90;;;;;;4931595;29;19927;-81
2021/12/16 11:09:21;;;;;;;;;;;12.40;99.90;;;;;;4951243;29;20419;-83
2021/12/16 11:12:10;;;;;;;;;;;12.30;99.90;;;;;;4950635;29;19931;-80
2021/12/16 11:14:40;;;;;;;;;;;12.30;99.90;;;;;;4949385;29;19926;-81
2021/12/16 11:17:09;;;;;;;;;;;12.30;99.90;;;;;;4950555;29;19933;-81
2021/12/16 11:19:37;;;;;;;;;;;12.30;99.90;;;;;;4951424;29;19933;-80
2021/12/16 11:22:06;;;;;;;;;;;12.30;99.90;;;;;;4933025;29;20007;-84
2021/12/16 11:24:37;;;;;;;;;;;12.30;99.90;;;;;;4931939;29;19937;-81
2021/12/16 11:27:24;;;;;;;;;;;12.30;99.90;;;;;;4951556;29;19915;-80
2021/12/16 11:29:52;;;;;;;;;;;12.40;99.90;;;;;;4938661;29;19927;-82
2021/12/16 11:32:39;;;;;;;;;;;12.40;99.90;;;;;;4949767;29;19927;-81
2021/12/16 11:35:26;;;;;;;;;;;12.40;99.90;;;;;;4930355;29;19926;-83
2021/12/16 11:37:55;;;;;;;;;;;12.30;99.90;;;;;;4950147;29;19927;-81
2021/12/16 11:40:25;;;;;;;;;;;12.40;99.90;;;;;;4931805;29;19937;-81
2021/12/16 11:43:04;;;;;;;;;;;12.40;99.90;;;;;;4933158;29;19933;-81
2021/12/16 11:45:32;;;;;;;;;;;12.40;99.90;;;;;;4958611;29;19931;-81
2021/12/16 11:48:04;;;;;;;;;;;12.40;99.90;;;;;;4950688;29;19934;-82
2021/12/16 11:50:34;;;;;;;;;;;12.40;99.90;;;;;;4933708;29;19934;-81
2021/12/16 11:53:02;;;;;;;;;;;12.40;99.90;;;;;;4948102;29;19937;-81
2021/12/16 11:55:34;;;;;;;;;;;12.40;99.90;;;;;;4949907;29;19927;-80
2021/12/16 11:58:07;;;;;;;;;;;12.40;99.90;;;;;;4967169;29;19927;-82
2021/12/16 12:00:39;;;;;;;;;;;12.40;99.90;;;;;;4942631;29;19937;-81
2021/12/16 12:03:11;;;;;;;;;;;12.70;99.90;;;;;;4929131;29;19931;-80
2021/12/16 12:05:45;;;;;;;;;;;12.40;99.90;;;;;;4930142;29;19943;-82
2021/12/16 12:08:23;;;;;;;;;;;12.40;99.90;;;;;;4921312;29;20093;-83
2021/12/16 12:11:16;;;;;;;;;;;11.90;99.90;;;;;;4945950;29;19927;-83
2021/12/16 12:13:51;;;;;;;;;;;12.60;99.90;;;;;;4932729;29;19934;-81
2021/12/16 12:16:25;;;;;;;;;;;12.40;99.90;;;;;;4946582;29;19927;-83
2021/12/16 12:19:01;;;;;;;;;;;12.40;99.90;;;;;;4948219;29;20381;-82
2021/12/16 12:21:34;;;;;;;;;;;12.40;99.90;;;;;;4932458;29;19931;-83
2021/12/16 12:24:21;;;;;;;;;;;12.70;99.90;;;;;;4935912;29;19931;-84
2021/12/16 12:27:13;;;;;;;;;;;12.40;99.90;;;;;;4909966;29;19918;-82
2021/12/16 12:29:46;;;;;;;;;;;12.40;99.90;;;;;;4918438;29;19950;-82
2021/12/16 12:32:34;;;;;;;;;;;12.40;99.90;;;;;;4915261;29;19933;-82
2021/12/16 12:35:20;;;;;;;;;;;12.30;99.90;;;;;;4930115;29;19927;-81
2021/12/16 12:37:54;;;;;;;;;;;12.50;99.90;;;;;;4922756;29;19938;-82
2021/12/16 12:40:51;;;;;;;;;;;12.50;99.90;;;;;;4893863;29;20291;-82
2021/12/16 12:43:37;;;;;;;;;;;11.40;99.90;;;;;;4928470;29;19938;-81
2021/12/16 12:46:10;;;;;;;;;;;12.60;99.90;;;;;;4929528;29;19931;-83
2021/12/16 12:48:40;;;;;;;;;;;12.60;99.90;;;;;;4921389;29;19927;-81
2021/12/16 12:51:12;;;;;;;;;;;12.50;99.90;;;;;;4896509;29;19938;-81
2021/12/16 12:54:03;;;;;;;;;;;12.70;99.90;;;;;;4922871;29;19933;-82
2021/12/16 12:56:56;;;;;;;;;;;12.80;99.90;;;;;;4947677;29;19931;-82
2021/12/16 12:59:35;;;;;;;;;;;11.90;99.90;;;;;;4949771;29;20068;-82
2021/12/16 13:02:13;;;;;;;;;;;12.50;99.90;;;;;;4932352;29;20385;-81
2021/12/16 13:04:52;;;;;;;;;;;11.40;99.90;;;;;;4916447;29;19933;-81
2021/12/16 13:07:30;;;;;;;;;;;12.60;99.90;;;;;;4930947;29;19927;-82
2021/12/16 13:10:05;;;;;;;;;;;12.40;99.90;;;;;;4931810;29;19946;-80
2021/12/16 13:12:45;;;;;;;;;;;13.60;99.90;;;;;;4950878;29;19934;-81
2021/12/16 13:15:44;;;;;;;;;;;12.60;99.90;;;;;;4956280;29;19934;-81
2021/12/16 13:27:25;;;;;;;;;;;11.50;99.90;;;;;;4951969;29;19927;-80
2021/12/16 13:30:39;;;;;;;;;;;12.60;99.90;;;;;;4935137;29;20876;-81
2021/12/16 13:33:27;;;;;;;;;;;12.60;99.90;;;;;;4935000;29;19927;-81
2021/12/16 13:36:05;;;;;;;;;;;12.60;99.90;;;;;;4953783;29;19938;-81
2021/12/16 13:38:38;;;;;;;;;;;12.60;99.90;;;;;;4953007;29;19934;-80
2021/12/16 13:41:21;;;;;;;;;;;12.50;99.90;;;;;;4936430;29;19934;-82
2021/12/16 13:43:57;;;;;;;;;;;12.60;99.90;;;;;;4936254;29;19926;-79
2021/12/16 14:04:34;;;;;;;;;;;12.60;99.90;;;;;;4945023;29;19923;-81
2021/12/16 14:07:24;;;;;;;;;;;12.60;99.90;;;;;;4950019;29;19926;-82
2021/12/16 14:09:55;;;;;;;;;;;12.60;99.90;;;;;;4975092;28;19933;-81
2021/12/16 14:13:36;;;;;;;;;;;12.60;99.90;;;;;;4977187;28;20242;-81
2021/12/16 14:15:26;;;;;;;;;;;12.70;99.90;;;;;;4994039;28;20168;-82
2021/12/16 14:18:08;;;;;;;;;;;11.70;99.90;;;;;;4976583;28;19940;-81
2021/12/16 14:23:45;;;;;;;;;;;12.80;99.90;;;;;;4987410;28;19926;-85
2021/12/16 14:32:25;;;;;;;;;;;12.70;99.90;;;;;;4990812;28;19930;-83
2021/12/16 14:35:18;;;;;;;;;;;12.70;99.90;;;;;;4971909;28;19926;-82
2021/12/16 14:37:46;;;;;;;;;;;12.60;99.90;;;;;;4987051;28;19926;-83
2021/12/16 14:41:04;;;;;;;;;;;12.60;99.90;;;;;;4972843;28;19933;-82
2021/12/16 14:47:17;;;;;;;;;;;11.90;99.90;;;;;;4972673;28;19926;-84
2021/12/16 14:49:49;;;;;;;;;;;12.60;99.90;;;;;;4980463;28;19926;-83
2021/12/16 14:52:26;;;;;;;;;;;13.40;99.90;;;;;;4990549;28;19933;-82
2021/12/16 14:55:00;;;;;;;;;;;12.60;99.90;;;;;;4952905;29;19926;-81
2021/12/16 14:57:52;;;;;;;;;;;12.50;99.90;;;;;;4986224;28;19927;-81
2021/12/16 15:00:29;;;;;;;;;;;12.50;99.90;;;;;;4972427;28;19926;-81
2021/12/16 15:03:01;;;;;;;;;;;12.50;99.90;;;;;;4972699;28;20316;-81
2021/12/16 15:05:37;;;;;;;;;;;12.50;99.90;;;;;;4972929;28;19937;-80
2021/12/16 15:08:14;;;;;;;;;;;13.60;99.90;;;;;;4973602;28;19926;-80
2021/12/16 15:10:52;;;;;;;;;;;12.40;99.90;;;;;;4991272;28;19941;-84
2021/12/16 15:13:56;;;;;;;;;;;12.00;99.90;;;;;;4969492;28;19934;-82
2021/12/16 15:16:55;;;;;;;;;;;12.40;99.90;;;;;;4973663;28;19930;-85
2021/12/16 15:37:37;;;;;;;;;;;12.60;99.90;;;;;;4985986;28;19926;-84
2021/12/16 15:40:28;;;;;;;;;;;12.50;99.90;;;;;;4981322;28;19926;-83
2021/12/16 15:43:00;;;;;;;;;;;12.50;99.90;;;;;;4981693;28;19930;-80
2021/12/16 15:45:34;;;;;;;;;;;12.50;99.90;;;;;;4953018;28;19937;-82
2021/12/16 15:48:25;;;;;;;;;;;12.60;99.90;;;;;;4982664;28;19926;-81
2021/12/16 15:54:50;;;;;;;;;;;12.40;99.90;;;;;;4946303;29;19927;-82
2021/12/16 15:57:26;;;;;;;;;;;12.30;99.90;;;;;;4962815;29;20331;-83
2021/12/16 16:00:11;;;;;;;;;;;12.40;99.90;;;;;;4965311;29;19938;-81
2021/12/16 16:02:56;;;;;;;;;;;12.10;99.90;;;;;;4965986;29;20435;-82
2021/12/16 16:05:36;;;;;;;;;;;12.30;99.90;;;;;;4963421;29;19945;-82
2021/12/16 16:08:14;;;;;;;;;;;12.30;99.90;;;;;;4950363;29;19930;-82
2021/12/16 16:10:49;;;;;;;;;;;11.60;99.90;;;;;;4967409;29;19941;-81
2021/12/16 16:13:21;;;;;;;;;;;11.30;99.90;;;;;;4952909;28;19929;-83
2021/12/16 16:16:03;;;;;;;;;;;12.50;99.90;;;;;;4966658;29;19933;-83
2021/12/16 16:19:06;;;;;;;;;;;;;;;;;;;;;
2021/12/16 16:21:46;;;;;;;;;;;12.30;99.90;;;;;;4971436;29;19926;-83
2021/12/16 16:24:26;;;;;;;;;;;11.90;99.90;;;;;;4963703;28;19930;-81
2021/12/16 16:26:57;;;;;;;;;;;12.20;99.90;;;;;;4964829;29;19935;-84
2021/12/16 16:29:28;;;;;;;;;;;12.20;99.90;;;;;;4964975;29;19936;-81
2021/12/16 16:31:56;;;;;;;;;;;12.30;99.90;;;;;;4951260;29;20031;-81
2021/12/16 16:34:38;;;;;;;;;;;12.30;99.90;;;;;;4967313;28;19945;-85
2021/12/16 16:37:29;;;;;;;;;;;12.20;99.90;;;;;;4949329;29;19931;-86
2021/12/16 16:40:06;;;;;;;;;;;12.20;99.90;;;;;;4948341;29;19937;-81
2021/12/16 16:42:40;;;;;;;;;;;10.50;99.90;;;;;;4968904;29;19933;-83
2021/12/16 16:45:20;;;;;;;;;;;12.40;99.90;;;;;;4950096;29;19930;-83
2021/12/16 16:48:15;;;;;;;;;;;12.10;99.90;;;;;;4966128;23;19931;-84
2021/12/16 16:50:44;;;;;;;;;;;12.20;99.90;;;;;;4957330;29;19941;-85
2021/12/16 16:53:16;;;;;;;;;;;12.20;99.90;;;;;;4957179;29;19931;-86
2021/12/16 16:55:45;;;;;;;;;;;12.20;99.90;;;;;;4945335;29;19934;-87
2021/12/16 16:58:15;;;;;;;;;;;12.20;99.90;;;;;;4946048;29;19926;-87
2021/12/16 17:01:01;;;;;;;;;;;12.20;99.90;;;;;;4940877;29;19937;-86
2021/12/16 17:03:30;;;;;;;;;;;12.10;99.90;;;;;;4960719;29;19937;-87
2021/12/16 17:06:03;;;;;;;;;;;12.10;99.90;;;;;;4967445;29;20279;-87
2021/12/16 17:08:48;;;;;;;;;;;12.10;99.90;;;;;;4949426;29;19931;-87
2021/12/16 17:11:22;;;;;;;;;;;12.10;99.90;;;;;;4959562;29;19922;-86
2021/12/16 17:19:22;;;;;;;;;;;12.10;99.90;;;;;;4963029;29;19931;-87
2021/12/16 17:21:52;;;;;;;;;;;12.10;99.90;;;;;;4945028;29;20314;-86
2021/12/16 17:24:24;;;;;;;;;;;12.10;99.90;;;;;;4963211;29;19937;-86
2021/12/16 17:27:01;;;;;;;;;;;12.10;99.90;;;;;;4973246;28;19926;-87
2021/12/16 17:29:32;;;;;;;;;;;12.10;99.90;;;;;;4964845;28;19930;-86
2021/12/16 17:32:16;;;;;;;;;;;12.10;99.90;;;;;;4961972;29;19930;-86
2021/12/16 17:34:50;;;;;;;;;;;12.10;99.90;;;;;;4965884;28;19931;-88
2021/12/16 17:37:23;;;;;;;;;;;12.10;99.90;;;;;;4980453;28;19927;-90
2021/12/16 17:40:07;;;;;;;;;;;12.10;99.90;;;;;;4966944;29;19927;-88
2021/12/16 17:42:45;;;;;;;;;;;12.10;99.90;;;;;;4979468;28;19926;-85
2021/12/16 17:45:26;;;;;;;;;;;12.00;99.90;;;;;;4938339;29;19934;-87
2021/12/16 17:47:55;;;;;;;;;;;12.30;99.90;;;;;;4953984;29;20016;-86
2021/12/16 17:50:30;;;;;;;;;;;12.00;99.90;;;;;;4920586;29;19937;-88
2021/12/16 17:53:01;;;;;;;;;;;12.00;99.90;;;;;;4942905;29;19915;-87
2021/12/16 17:55:49;;;;;;;;;;;12.00;99.90;;;;;;4948387;29;19990;-86
2021/12/16 17:59:18;;;;;;;;;;;12.00;99.90;;;;;;4989653;23;19932;-82
2021/12/16 18:01:47;;;;;;;;;;;12.00;99.90;;;;;;4994699;28;20363;-82
2021/12/16 18:07:48;;;;;;;;;;;12.10;99.90;;;;;;5031703;28;19936;-81
2021/12/16 18:10:32;;;;;;;;;;;12.00;99.90;;;;;;4998455;28;19948;-83
2021/12/16 18:13:12;;;;;;;;;;;11.90;99.90;;;;;;5032461;28;19929;-80
2021/12/16 18:15:40;;;;;;;;;;;12.00;99.90;;;;;;5022267;28;19934;-83
2021/12/16 18:18:14;;;;;;;;;;;12.00;99.90;;;;;;5030117;28;19936;-80
2021/12/16 18:20:53;;;;;;;;;;;11.90;99.90;;;;;;5031693;28;19929;-81
2021/12/16 18:23:26;;;;;;;;;;;11.90;99.90;;;;;;5027603;28;19933;-82
2021/12/16 18:26:09;;;;;;;;;;;12.10;99.90;;;;;;5021605;28;19925;-82
2021/12/16 18:28:47;;;;;;;;;;;11.90;99.90;;;;;;5034795;28;19933;-81
2021/12/16 18:31:23;;;;;;;;;;;12.10;99.90;;;;;;5020905;28;19925;-83
2021/12/16 18:33:58;;;;;;;;;;;12.20;99.90;;;;;;5011800;28;19925;-83
2021/12/16 18:36:36;;;;;;;;;;;12.10;99.90;;;;;;5027857;28;19925;-82
2021/12/16 18:39:38;;;;;;;;;;;12.20;99.90;;;;;;4995988;28;19951;-82
2021/12/16 18:42:36;;;;;;;;;;;11.70;99.90;;;;;;5038586;28;19909;-83
2021/12/16 18:46:07;;;;;;;;;;;12.20;99.90;;;;;;4953402;29;20033;-82
2021/12/16 18:48:48;;;;;;;;;;;12.00;99.90;;;;;;4955005;29;19935;-82
2021/12/16 18:51:43;;;;;;;;;;;11.90;99.90;;;;;;4934356;29;19931;-84
2021/12/16 18:54:28;;;;;;;;;;;12.00;99.90;;;;;;4934061;29;19937;-84
2021/12/16 18:57:02;;;;;;;;;;;12.00;99.90;;;;;;4930377;29;19934;-82
2021/12/16 18:59:36;;;;;;;;;;;10.90;99.90;;;;;;4920230;29;19937;-84
2021/12/16 19:02:07;;;;;;;;;;;12.20;99.90;;;;;;4919733;29;19931;-83
2021/12/16 19:04:59;;;;;;;;;;;11.60;99.90;;;;;;4935010;29;19930;-83
2021/12/16 19:08:10;;;;;;;;;;;;;;;;;;;;;
2021/12/16 19:11:36;;;;;;;;;;;11.90;99.90;;;;;;4946640;29;20533;-86